Huvudsida
METAR-TAF:

METAR-TAF

Flygplatser :

Mariehamn, Finland

Mariehamns flygplats

latitud: 60-07N, longitud: 019-54E, höjd: 6 m

Aktuellt väderrapport

Denna rapport gjordes för 5 minuter sedan, klockan 18:20 UTC
Stilla vind
Temperatur 4°C
Fuktighet 81%
Tryck 1016 hPa
Sikt 10 km eller mer
Få moln på en höjd av 2400 ft

METAR: EFMA 221820Z 00000KT 9999 FEW024 04/01 Q1016

Tid: 21:25 (18:25 UTC)

Väderprognos

Denna rapport gjordes för 48 minuter sedan, klockan 17:37 UTC
Prognos gäller från 22 kl. 18 UTC till 23 kl. 03 UTC
Vind 5 kt från nord/nordväst
Sikt 10 km eller mer
Få moln på en höjd av 2500 ft
Sannolikhet 40%
från 22 kl. 20 UTC till 23 kl. 03 UTC
Sikt: 0300 m
Brutna moln på en höjd av 200 ft
dimma

TAF: EFMA 221737Z 2218/2303 34005KT 9999 FEW025 PROB40 2220/2303 0300 FG BKN002

Aktuella väderrapporter och prognoser från 4000 flygplatser (METAR- och TAF-rapporter).

De tillgängliga stationerna syns som gula och röda prickar på kartan.

För musen över prickarna för att se namnen på stationerna.

Klicka sedan för att få väderrapporter och prognoser.

För att ändra kartan: Klicka på de gröna knapparna med ett svart kors på för att zooma in; den gröna knappen med ett streck på för att zooma ut; eller på de gröna pilarna för angränsande kartor.


METAR-TAF: